Aviation Digital Data Service (ADDS)

Output produced by METARs form (0357 UTC 17 August 2017)
found at http://www.aviationweather.gov/adds/metars/
 
KMDT 170256Z 00000KT 10SM CLR 22/20 A3002 RMK AO2 SLP165 T02170200 51013
KMDT 170156Z 00000KT 10SM FEW250 21/19 A3001 RMK AO2 SLP163 T02060194
KMDT 170056Z 00000KT 10SM FEW250 23/21 A3000 RMK AO2 SLP159 T02280206
KMDT 162356Z 00000KT 10SM FEW250 25/21 A2998 RMK AO2 SLP152 T02500206 10300 20250 53002
KMDT 162256Z 00000KT 10SM FEW055 FEW250 27/21 A2998 RMK AO2 SLP150 T02720211
KMDT 162156Z VRB04KT 10SM FEW055 FEW250 29/17 A2998 RMK AO2 SLP150 T02890172
KMDT 162056Z 28007KT 10SM SCT065 SCT250 29/19 A2998 RMK AO2 SLP150 T02890189 55007
KMDT 161956Z 30010KT 10SM FEW045 SCT065 29/17 A2998 RMK AO2 SLP149 T02940172
KMDT 161856Z 30011KT 10SM SCT050 BKN065 30/18 A2999 RMK AO2 SLP154 T03000183
KMDT 161756Z 32010KT 10SM SCT043 29/19 A3000 RMK AO2 SLP157 T02890189 10289 20206 56007
KMDT 161656Z 31008KT 10SM SCT032 28/21 A3000 RMK AO2 SLP157 T02780211
KMDT 161556Z 31008KT 10SM SCT014 27/21 A3000 RMK AO2 SLP158 T02670211
KMDT 161503Z 29007KT 7SM SCT014 25/22 A3001 RMK AO2 T02500217
KMDT 161456Z 30008KT 6SM HZ BKN014 OVC100 24/21 A3002 RMK AO2 SLP164 T02390211 53003
KMDT 161400Z 25003KT 3SM BR SCT008 BKN011 OVC100 23/22 A3001 RMK AO2 T02280217
KMDT 161356Z 26003KT 2 1/2SM BR BKN008 OVC011 22/22 A3001 RMK AO2 CIG 005V010 SLP161 T02220217
KMDT 161352Z 28004KT 2 1/2SM BR BKN005 OVC010 22/21 A3001 RMK AO2
KMDT 161330Z 28004KT 2SM BR OVC004 22/21 A3001 RMK AO2 CIG 002V006 T02170211
KMDT 161315Z 30007KT 1 1/4SM BR OVC002 21/21 A3001 RMK AO2 T02110211
KMDT 161305Z 30006KT 3/4SM R13/6000VP6000FT BR OVC002 21/21 A3001 RMK AO2 T02110211
KMDT 161256Z 30006KT 1/2SM R13/3000VP6000FT FG OVC002 21/21 A3001 RMK AO2 SLP161 T02110211
KMDT 161211Z 33005KT 1/4SM R13/1600V2800FT FG VV002 21/21 A3000 RMK AO2 T02060206
KMDT 161156Z 32006KT 1/4SM R13/1600V2200FT FG VV002 21/21 A2999 RMK AO2 SLP155 T02060206 10211 20200 51013
KMDT 161138Z 30006KT 1/4SM R13/1400V2600FT FG VV002 21/21 A2999 RMK AO2 T02060206
KMDT 161121Z 30006KT M1/4SM R13/1200V1400FT FG VV002 21/21 A2999 RMK AO2 T02060206
KMDT 161103Z 32005KT 1/4SM R13/1800V4000FT FG VV002 21/21 A2998 RMK AO2 T02060206
KMDT 161056Z 31004KT M1/4SM R13/1000V2200FT FG VV002 21/21 A2999 RMK AO2 SLP153 T02060206
KMDT 160956Z 34003KT 1/8SM R13/1400V1800FT FG VV002 21/21 A2998 RMK AO2 SLP148 T02060206
KMDT 160908Z 00000KT 1/4SM R13/1200V1600FT FG VV002 21/21 A2996 RMK AO2 T02060206
KMDT 160856Z 04003KT 1/8SM R13/1600V2400FT FG VV002 21/21 A2995 RMK AO2 SLP142 T02060206 51006
KMDT 160853Z 00000KT 1/8SM R13/1200V2400FT FG VV002 21/21 A2996 RMK AO2
KMDT 160808Z 00000KT 1/8SM R13/1400V2200FT FG VV002 21/21 A2995 RMK AO2 T02060206
KMDT 160756Z 00000KT 1/8SM R13/1600V4500FT FG VV002 21/21 A2995 RMK AO2 SLP139 T02060206
KMDT 160725Z 18003KT 1/2SM R13/2200VP6000FT FG OVC002 21/21 A2994 RMK AO2 T02060206
KMDT 160706Z 11003KT 3/4SM R13/5000VP6000FT BR OVC002 21/21 A2994 RMK AO2 T02060206
KMDT 160656Z 13003KT 1SM R13/4000VP6000FT BR OVC003 21/21 A2994 RMK AO2 SLP137 T02110211
KMDT 160650Z 00000KT 1SM R13/3500VP6000FT BR VV003 21/21 A2994 RMK AO2
KMDT 160556Z 00000KT 2 1/2SM BR BKN004 21/21 A2993 RMK AO2 SLP134 T02060206 10233 20206 50003
KMDT 160549Z 00000KT 2 1/2SM BR BKN004 21/21 A2993 RMK AO2 T02110206
KMDT 160528Z 00000KT 2 1/2SM BR FEW004 21/21 A2993 RMK AO2 T02110206
KMDT 160456Z 00000KT 5SM BR FEW060 21/20 A2993 RMK AO2 SLP135 T02060200 402670194
KMDT 160356Z 00000KT 5SM BR FEW250 21/21 A2993 RMK AO2 SLP134 T02110206
KMDT 160256Z 00000KT 6SM BR BKN250 22/21 A2992 RMK AO2 SLP131 T02170211 51009
KMDT 160156Z 00000KT 7SM SCT250 21/21 A2992 RMK AO2 SLP130 T02110211
KMDT 160056Z 00000KT 7SM SCT200 22/21 A2991 RMK AO2 SLP126 T02220211
KMDT 152356Z 00000KT 7SM SCT200 23/22 A2989 RMK AO2 SLP122 T02280217 10267 20228 53000
KMDT 152256Z 00000KT 9SM FEW065 SCT200 26/21 A2989 RMK AO2 SLP120 T02610206
KMDT 152156Z 17003KT 9SM FEW030 FEW065 SCT200 27/21 A2988 RMK AO2 SLP116 T02670211
KMDT 152056Z 28004KT 8SM SCT025 OVC065 27/21 A2989 RMK AO2 SLP121 T02670211 55006
KMDT 152035Z 28003KT 8SM OVC025 25/21 A2989 RMK AO2 T02500211
KMDT 151956Z COR 00000KT 6SM HZ SCT021 OVC065 25/21 A2989 RMK AO2 SLP121 T02500211
KMDT 151856Z 20003KT 5SM HZ FEW016 SCT021 OVC065 26/21 A2990 RMK AO2 SLP125 T02560211
KMDT 151848Z 00000KT 5SM HZ FEW016 SCT021 OVC065 25/21 A2990 RMK AO2 T02500211
KMDT 151809Z 00000KT 5SM HZ BKN015 OVC065 24/21 A2991 RMK AO2 T02440211
KMDT 151756Z 19003KT 5SM HZ OVC013 24/21 A2991 RMK AO2 SLP128 60000 T02390211 10244 20200 58001
KMDT 151656Z 00000KT 5SM HZ OVC012 23/21 A2992 RMK AO2 SLP130 T02330206
KMDT 151623Z 00000KT 5SM HZ BKN010 23/20 A2991 RMK AO2 T02280200